sensor_id;sensor_type;location;lat;lon;timestamp;pressure;altitude;pressure_sealevel;temperature;humidity
71149;BME280;59072;42.144;25.200;2022-12-26T00:01:33;101079.47;;;3.24;78.32
71149;BME280;59072;42.144;25.200;2022-12-26T00:03:59;101078.00;;;2.84;79.67
71149;BME280;59072;42.144;25.200;2022-12-26T00:06:26;101082.97;;;2.77;79.96
71149;BME280;59072;42.144;25.200;2022-12-26T00:08:53;101109.19;;;3.16;79.34
71149;BME280;59072;42.144;25.200;2022-12-26T00:11:19;101105.81;;;3.34;79.25
71149;BME280;59072;42.144;25.200;2022-12-26T00:13:45;101083.16;;;3.13;78.04
71149;BME280;59072;42.144;25.200;2022-12-26T00:16:14;101083.75;;;2.40;80.97
71149;BME280;59072;42.144;25.200;2022-12-26T00:18:40;101113.00;;;2.28;82.17
71149;BME280;59072;42.144;25.200;2022-12-26T00:21:07;101102.16;;;2.70;80.76
71149;BME280;59072;42.144;25.200;2022-12-26T00:23:33;101123.16;;;2.89;79.59
71149;BME280;59072;42.144;25.200;2022-12-26T00:26:06;101119.81;;;2.97;79.11
71149;BME280;59072;42.144;25.200;2022-12-26T00:28:32;101117.28;;;3.15;77.80
71149;BME280;59072;42.144;25.200;2022-12-26T00:31:02;101131.28;;;3.15;77.80
71149;BME280;59072;42.144;25.200;2022-12-26T00:33:27;101106.41;;;2.90;77.86
71149;BME280;59072;42.144;25.200;2022-12-26T00:35:53;101139.72;;;3.19;77.93
71149;BME280;59072;42.144;25.200;2022-12-26T00:38:18;101128.63;;;3.25;77.19
71149;BME280;59072;42.144;25.200;2022-12-26T00:40:43;101112.00;;;3.15;76.81
71149;BME280;59072;42.144;25.200;2022-12-26T00:43:09;101140.94;;;3.25;77.46
71149;BME280;59072;42.144;25.200;2022-12-26T00:45:35;101128.63;;;3.15;77.16
71149;BME280;59072;42.144;25.200;2022-12-26T00:48:00;101136.00;;;3.02;77.72
71149;BME280;59072;42.144;25.200;2022-12-26T00:50:26;101109.31;;;2.77;78.42
71149;BME280;59072;42.144;25.200;2022-12-26T00:52:52;101135.63;;;3.07;77.08
71149;BME280;59072;42.144;25.200;2022-12-26T00:55:17;101137.09;;;2.62;78.31
71149;BME280;59072;42.144;25.200;2022-12-26T00:57:42;101128.78;;;2.37;80.15
71149;BME280;59072;42.144;25.200;2022-12-26T01:00:08;101107.44;;;1.82;81.11
71149;BME280;59072;42.144;25.200;2022-12-26T01:02:34;101126.94;;;1.79;81.60
71149;BME280;59072;42.144;25.200;2022-12-26T01:05:04;101124.75;;;2.14;81.09
71149;BME280;59072;42.144;25.200;2022-12-26T01:07:34;101130.84;;;2.14;79.27
71149;BME280;59072;42.144;25.200;2022-12-26T01:10:00;101133.06;;;1.39;80.19
71149;BME280;59072;42.144;25.200;2022-12-26T01:12:26;101102.44;;;0.98;81.69
71149;BME280;59072;42.144;25.200;2022-12-26T01:14:54;101126.75;;;0.90;81.83
71149;BME280;59072;42.144;25.200;2022-12-26T01:17:20;101141.88;;;0.56;81.30
71149;BME280;59072;42.144;25.200;2022-12-26T01:19:45;101125.66;;;0.51;81.75
71149;BME280;59072;42.144;25.200;2022-12-26T01:22:11;101119.50;;;0.83;79.74
71149;BME280;59072;42.144;25.200;2022-12-26T01:24:36;101144.34;;;1.30;79.13
71149;BME280;59072;42.144;25.200;2022-12-26T01:27:01;101140.28;;;1.47;79.84
71149;BME280;59072;42.144;25.200;2022-12-26T01:29:27;101136.16;;;1.54;80.21
71149;BME280;59072;42.144;25.200;2022-12-26T01:31:52;101131.75;;;1.65;79.40
71149;BME280;59072;42.144;25.200;2022-12-26T01:34:18;101092.97;;;1.47;80.57
71149;BME280;59072;42.144;25.200;2022-12-26T01:36:43;101123.00;;;1.54;81.54
71149;BME280;59072;42.144;25.200;2022-12-26T01:39:08;101124.75;;;1.85;80.94
71149;BME280;59072;42.144;25.200;2022-12-26T01:41:35;101128.00;;;1.67;81.48
71149;BME280;59072;42.144;25.200;2022-12-26T01:44:05;101115.88;;;1.35;81.99
71149;BME280;59072;42.144;25.200;2022-12-26T01:46:37;101128.31;;;1.74;81.17
71149;BME280;59072;42.144;25.200;2022-12-26T01:49:40;101123.50;;;1.89;82.24
71149;BME280;59072;42.144;25.200;2022-12-26T01:52:14;101118.81;;;1.92;83.00
71149;BME280;59072;42.144;25.200;2022-12-26T01:54:44;101125.00;;;1.91;81.94
71149;BME280;59072;42.144;25.200;2022-12-26T01:57:16;101132.38;;;1.97;82.75
71149;BME280;59072;42.144;25.200;2022-12-26T01:59:44;101114.94;;;1.96;82.94
71149;BME280;59072;42.144;25.200;2022-12-26T02:02:11;101106.72;;;1.90;82.76
71149;BME280;59072;42.144;25.200;2022-12-26T02:04:46;101110.38;;;1.98;82.08
71149;BME280;59072;42.144;25.200;2022-12-26T02:07:33;101123.09;;;2.03;81.18
71149;BME280;59072;42.144;25.200;2022-12-26T02:10:00;101127.25;;;1.86;82.03
71149;BME280;59072;42.144;25.200;2022-12-26T02:12:32;101119.34;;;2.06;81.33
71149;BME280;59072;42.144;25.200;2022-12-26T02:14:58;101131.53;;;1.87;81.70
71149;BME280;59072;42.144;25.200;2022-12-26T02:17:25;101132.38;;;1.97;81.25
71149;BME280;59072;42.144;25.200;2022-12-26T02:31:25;101130.56;;;1.98;80.90
71149;BME280;59072;42.144;25.200;2022-12-26T02:36:41;101144.47;;;1.59;83.58
71149;BME280;59072;42.144;25.200;2022-12-26T02:39:45;101150.31;;;1.73;83.19
71149;BME280;59072;42.144;25.200;2022-12-26T02:48:19;101169.94;;;1.69;81.29
71149;BME280;59072;42.144;25.200;2022-12-26T02:54:08;101156.19;;;1.86;80.64
71149;BME280;59072;42.144;25.200;2022-12-26T02:57:02;101154.63;;;1.84;80.19
71149;BME280;59072;42.144;25.200;2022-12-26T03:02:44;101157.25;;;1.74;80.29
71149;BME280;59072;42.144;25.200;2022-12-26T03:05:38;101179.59;;;1.58;80.91
71149;BME280;59072;42.144;25.200;2022-12-26T03:08:31;101161.63;;;1.23;81.85
71149;BME280;59072;42.144;25.200;2022-12-26T03:11:16;101171.72;;;0.76;83.56
71149;BME280;59072;42.144;25.200;2022-12-26T03:14:20;101176.91;;;0.66;83.37
71149;BME280;59072;42.144;25.200;2022-12-26T03:16:49;101157.16;;;0.51;84.06
71149;BME280;59072;42.144;25.200;2022-12-26T03:19:37;101158.44;;;0.56;84.10
71149;BME280;59072;42.144;25.200;2022-12-26T03:22:23;101179.44;;;0.77;83.54
71149;BME280;59072;42.144;25.200;2022-12-26T03:24:55;101165.53;;;1.08;82.87
71149;BME280;59072;42.144;25.200;2022-12-26T03:27:41;101155.34;;;1.14;82.02
71149;BME280;59072;42.144;25.200;2022-12-26T03:30:07;101144.28;;;0.69;83.36
71149;BME280;59072;42.144;25.200;2022-12-26T03:32:54;101145.25;;;0.89;83.23
71149;BME280;59072;42.144;25.200;2022-12-26T03:35:20;101135.09;;;0.74;83.24
71149;BME280;59072;42.144;25.200;2022-12-26T03:37:51;101153.06;;;0.58;85.19
71149;BME280;59072;42.144;25.200;2022-12-26T03:40:27;101159.69;;;0.94;83.52
71149;BME280;59072;42.144;25.200;2022-12-26T03:46:41;101169.75;;;0.57;84.60
71149;BME280;59072;42.144;25.200;2022-12-26T03:49:28;101155.22;;;0.32;84.84
71149;BME280;59072;42.144;25.200;2022-12-26T03:52:58;101174.72;;;0.71;83.37
71149;BME280;59072;42.144;25.200;2022-12-26T03:59:10;101177.94;;;0.43;84.18
71149;BME280;59072;42.144;25.200;2022-12-26T04:01:59;101178.59;;;0.35;85.58
71149;BME280;59072;42.144;25.200;2022-12-26T04:04:48;101178.22;;;0.28;85.12
71149;BME280;59072;42.144;25.200;2022-12-26T04:07:39;101176.31;;;0.30;85.00
71149;BME280;59072;42.144;25.200;2022-12-26T04:10:34;101180.63;;;0.64;83.70
71149;BME280;59072;42.144;25.200;2022-12-26T04:13:23;101171.72;;;0.97;82.75
71149;BME280;59072;42.144;25.200;2022-12-26T04:16:17;101170.66;;;1.09;82.26
71149;BME280;59072;42.144;25.200;2022-12-26T04:19:18;101175.47;;;1.04;82.80
71149;BME280;59072;42.144;25.200;2022-12-26T04:24:50;101153.31;;;0.55;84.03
71149;BME280;59072;42.144;25.200;2022-12-26T04:27:35;101175.94;;;0.88;83.43
71149;BME280;59072;42.144;25.200;2022-12-26T04:30:19;101177.34;;;1.13;83.40
71149;BME280;59072;42.144;25.200;2022-12-26T04:33:13;101181.00;;;1.01;84.25
71149;BME280;59072;42.144;25.200;2022-12-26T04:36:05;101148.84;;;1.18;83.17
71149;BME280;59072;42.144;25.200;2022-12-26T04:38:55;101173.47;;;1.48;82.31
71149;BME280;59072;42.144;25.200;2022-12-26T04:41:42;101157.84;;;1.16;84.26
71149;BME280;59072;42.144;25.200;2022-12-26T04:44:27;101160.59;;;1.14;84.19
71149;BME280;59072;42.144;25.200;2022-12-26T04:46:54;101185.44;;;1.31;83.69
71149;BME280;59072;42.144;25.200;2022-12-26T04:49:20;101189.66;;;1.23;83.41
71149;BME280;59072;42.144;25.200;2022-12-26T04:52:08;101195.16;;;1.10;83.97
71149;BME280;59072;42.144;25.200;2022-12-26T04:54:35;101198.16;;;1.05;84.15
71149;BME280;59072;42.144;25.200;2022-12-26T04:57:00;101199.34;;;1.22;83.89
71149;BME280;59072;42.144;25.200;2022-12-26T04:59:26;101197.09;;;1.38;82.38
71149;BME280;59072;42.144;25.200;2022-12-26T05:01:52;101209.22;;;1.30;82.36
71149;BME280;59072;42.144;25.200;2022-12-26T05:04:36;101199.13;;;1.25;83.65
71149;BME280;59072;42.144;25.200;2022-12-26T05:07:23;101206.72;;;1.49;81.98
71149;BME280;59072;42.144;25.200;2022-12-26T05:10:13;101215.94;;;1.23;83.05
71149;BME280;59072;42.144;25.200;2022-12-26T05:12:39;101213.94;;;1.05;82.99
71149;BME280;59072;42.144;25.200;2022-12-26T05:15:05;101212.84;;;0.87;83.53
71149;BME280;59072;42.144;25.200;2022-12-26T05:17:31;101208.03;;;1.13;83.75
71149;BME280;59072;42.144;25.200;2022-12-26T05:20:15;101226.03;;;0.96;85.64
71149;BME280;59072;42.144;25.200;2022-12-26T05:23:00;101222.94;;;0.91;82.99
71149;BME280;59072;42.144;25.200;2022-12-26T05:25:45;101223.47;;;0.85;84.45
71149;BME280;59072;42.144;25.200;2022-12-26T05:28:30;101193.59;;;0.65;83.47
71149;BME280;59072;42.144;25.200;2022-12-26T05:31:17;101224.63;;;0.92;82.29
71149;BME280;59072;42.144;25.200;2022-12-26T05:33:42;101213.97;;;0.40;83.96
71149;BME280;59072;42.144;25.200;2022-12-26T05:36:30;101221.03;;;0.72;82.60
71149;BME280;59072;42.144;25.200;2022-12-26T05:38:57;101205.19;;;0.84;81.17
71149;BME280;59072;42.144;25.200;2022-12-26T05:41:23;101228.72;;;1.06;81.73
71149;BME280;59072;42.144;25.200;2022-12-26T05:43:48;101222.63;;;0.85;82.66
71149;BME280;59072;42.144;25.200;2022-12-26T05:46:14;101199.50;;;0.14;83.47
71149;BME280;59072;42.144;25.200;2022-12-26T05:48:39;101211.84;;;0.34;83.36
71149;BME280;59072;42.144;25.200;2022-12-26T05:51:04;101219.09;;;0.42;82.94
71149;BME280;59072;42.144;25.200;2022-12-26T05:53:31;101216.88;;;0.37;81.68
71149;BME280;59072;42.144;25.200;2022-12-26T05:56:04;101221.81;;;0.52;82.00
71149;BME280;59072;42.144;25.200;2022-12-26T05:58:31;101199.81;;;0.32;81.88
71149;BME280;59072;42.144;25.200;2022-12-26T06:01:23;101221.06;;;0.61;81.14
71149;BME280;59072;42.144;25.200;2022-12-26T06:03:53;101224.41;;;0.31;81.30
71149;BME280;59072;42.144;25.200;2022-12-26T06:06:21;101200.91;;;0.29;80.93
71149;BME280;59072;42.144;25.200;2022-12-26T06:08:48;101237.47;;;0.42;82.13
71149;BME280;59072;42.144;25.200;2022-12-26T06:11:14;101236.06;;;0.38;80.67
71149;BME280;59072;42.144;25.200;2022-12-26T06:13:40;101228.56;;;0.22;80.96
71149;BME280;59072;42.144;25.200;2022-12-26T06:16:16;101213.97;;;0.08;82.40
71149;BME280;59072;42.144;25.200;2022-12-26T06:18:42;101222.59;;;0.31;81.02
71149;BME280;59072;42.144;25.200;2022-12-26T06:21:10;101257.06;;;0.70;81.04
71149;BME280;59072;42.144;25.200;2022-12-26T06:23:37;101248.56;;;0.78;81.66
71149;BME280;59072;42.144;25.200;2022-12-26T06:26:03;101243.44;;;0.76;80.36
71149;BME280;59072;42.144;25.200;2022-12-26T06:28:29;101241.06;;;0.73;80.47
71149;BME280;59072;42.144;25.200;2022-12-26T06:31:10;101235.06;;;0.50;82.47
71149;BME280;59072;42.144;25.200;2022-12-26T06:33:36;101263.53;;;0.66;82.52
71149;BME280;59072;42.144;25.200;2022-12-26T06:36:13;101263.31;;;0.58;82.64
71149;BME280;59072;42.144;25.200;2022-12-26T06:38:39;101261.13;;;0.95;82.44
71149;BME280;59072;42.144;25.200;2022-12-26T06:41:06;101266.00;;;1.00;81.90
71149;BME280;59072;42.144;25.200;2022-12-26T06:43:31;101269.22;;;1.04;83.55
71149;BME280;59072;42.144;25.200;2022-12-26T06:45:58;101264.41;;;1.30;83.57
71149;BME280;59072;42.144;25.200;2022-12-26T06:48:25;101242.94;;;1.46;82.40
71149;BME280;59072;42.144;25.200;2022-12-26T06:50:50;101272.28;;;1.51;82.94
71149;BME280;59072;42.144;25.200;2022-12-26T06:53:19;101263.31;;;1.84;81.72
71149;BME280;59072;42.144;25.200;2022-12-26T06:55:44;101275.91;;;1.80;83.25
71149;BME280;59072;42.144;25.200;2022-12-26T06:58:09;101253.50;;;1.86;83.23
71149;BME280;59072;42.144;25.200;2022-12-26T07:00:35;101242.28;;;1.84;83.97
71149;BME280;59072;42.144;25.200;2022-12-26T07:03:00;101280.50;;;2.38;82.85
71149;BME280;59072;42.144;25.200;2022-12-26T07:05:26;101264.19;;;2.64;82.02
71149;BME280;59072;42.144;25.200;2022-12-26T07:07:51;101267.22;;;2.59;82.29
71149;BME280;59072;42.144;25.200;2022-12-26T07:10:20;101280.56;;;2.68;81.94
71149;BME280;59072;42.144;25.200;2022-12-26T07:12:46;101255.44;;;2.73;82.47
71149;BME280;59072;42.144;25.200;2022-12-26T07:15:12;101294.84;;;2.94;82.55
71149;BME280;59072;42.144;25.200;2022-12-26T07:17:37;101260.44;;;2.96;82.70
71149;BME280;59072;42.144;25.200;2022-12-26T07:20:04;101263.50;;;2.81;82.78
71149;BME280;59072;42.144;25.200;2022-12-26T07:22:29;101272.91;;;3.13;82.90
71149;BME280;59072;42.144;25.200;2022-12-26T07:24:55;101287.31;;;3.29;81.91
71149;BME280;59072;42.144;25.200;2022-12-26T07:27:20;101294.97;;;3.32;82.31
71149;BME280;59072;42.144;25.200;2022-12-26T07:29:47;101285.50;;;3.39;82.01
71149;BME280;59072;42.144;25.200;2022-12-26T07:32:13;101305.88;;;3.56;82.07
71149;BME280;59072;42.144;25.200;2022-12-26T07:34:38;101309.41;;;3.85;81.04
71149;BME280;59072;42.144;25.200;2022-12-26T07:37:04;101306.44;;;3.97;80.53
71149;BME280;59072;42.144;25.200;2022-12-26T07:39:29;101289.84;;;4.15;78.57
71149;BME280;59072;42.144;25.200;2022-12-26T07:41:55;101306.97;;;4.29;79.74
71149;BME280;59072;42.144;25.200;2022-12-26T07:44:25;101305.19;;;4.47;78.83
71149;BME280;59072;42.144;25.200;2022-12-26T07:46:51;101317.47;;;4.66;78.86
71149;BME280;59072;42.144;25.200;2022-12-26T07:49:16;101316.72;;;4.92;78.24
71149;BME280;59072;42.144;25.200;2022-12-26T07:51:42;101302.38;;;4.94;79.03
71149;BME280;59072;42.144;25.200;2022-12-26T07:54:07;101303.25;;;5.21;79.40
71149;BME280;59072;42.144;25.200;2022-12-26T07:56:33;101293.13;;;5.34;78.51
71149;BME280;59072;42.144;25.200;2022-12-26T07:58:58;101311.19;;;5.65;78.53
71149;BME280;59072;42.144;25.200;2022-12-26T08:01:24;101290.53;;;5.69;78.20
71149;BME280;59072;42.144;25.200;2022-12-26T08:03:50;101304.16;;;5.82;76.71
71149;BME280;59072;42.144;25.200;2022-12-26T08:06:16;101317.41;;;5.82;76.79
71149;BME280;59072;42.144;25.200;2022-12-26T08:08:42;101301.31;;;6.01;76.31
71149;BME280;59072;42.144;25.200;2022-12-26T08:11:09;101303.69;;;6.13;75.23
71149;BME280;59072;42.144;25.200;2022-12-26T08:13:37;101314.03;;;6.32;74.95
71149;BME280;59072;42.144;25.200;2022-12-26T08:16:05;101312.09;;;6.51;74.26
71149;BME280;59072;42.144;25.200;2022-12-26T08:18:30;101330.03;;;6.65;72.97
71149;BME280;59072;42.144;25.200;2022-12-26T08:20:57;101335.72;;;6.78;73.87
71149;BME280;59072;42.144;25.200;2022-12-26T08:23:22;101314.13;;;6.73;73.10
71149;BME280;59072;42.144;25.200;2022-12-26T08:25:47;101336.38;;;6.89;74.33
71149;BME280;59072;42.144;25.200;2022-12-26T08:28:13;101329.09;;;6.82;74.07
71149;BME280;59072;42.144;25.200;2022-12-26T08:30:39;101326.13;;;7.02;73.35
71149;BME280;59072;42.144;25.200;2022-12-26T08:33:09;101311.22;;;7.09;73.07
71149;BME280;59072;42.144;25.200;2022-12-26T08:35:36;101304.91;;;7.18;73.14
71149;BME280;59072;42.144;25.200;2022-12-26T08:38:03;101315.50;;;7.35;72.37
71149;BME280;59072;42.144;25.200;2022-12-26T08:40:28;101310.53;;;6.99;73.33
71149;BME280;59072;42.144;25.200;2022-12-26T08:42:54;101318.50;;;7.40;73.09
71149;BME280;59072;42.144;25.200;2022-12-26T08:45:19;101319.78;;;7.77;71.13
71149;BME280;59072;42.144;25.200;2022-12-26T08:47:45;101302.34;;;7.66;71.68
71149;BME280;59072;42.144;25.200;2022-12-26T08:50:10;101303.47;;;7.80;71.36
71149;BME280;59072;42.144;25.200;2022-12-26T08:52:36;101296.75;;;8.09;71.00
71149;BME280;59072;42.144;25.200;2022-12-26T08:55:02;101306.09;;;7.96;71.39
71149;BME280;59072;42.144;25.200;2022-12-26T08:57:28;101296.97;;;7.99;70.59
71149;BME280;59072;42.144;25.200;2022-12-26T08:59:53;101299.91;;;8.04;70.36
71149;BME280;59072;42.144;25.200;2022-12-26T09:02:19;101305.66;;;8.24;70.32
71149;BME280;59072;42.144;25.200;2022-12-26T09:04:44;101305.09;;;7.97;71.04
71149;BME280;59072;42.144;25.200;2022-12-26T09:07:10;101299.59;;;8.07;71.23
71149;BME280;59072;42.144;25.200;2022-12-26T09:09:35;101298.25;;;8.51;70.54
71149;BME280;59072;42.144;25.200;2022-12-26T09:12:00;101271.94;;;8.56;68.96
71149;BME280;59072;42.144;25.200;2022-12-26T09:14:26;101288.44;;;8.74;69.51
71149;BME280;59072;42.144;25.200;2022-12-26T09:16:51;101279.38;;;8.29;69.32
71149;BME280;59072;42.144;25.200;2022-12-26T09:19:19;101265.59;;;8.34;69.81
71149;BME280;59072;42.144;25.200;2022-12-26T09:21:45;101240.41;;;8.53;68.92
71149;BME280;59072;42.144;25.200;2022-12-26T09:24:14;101263.22;;;8.93;68.41
71149;BME280;59072;42.144;25.200;2022-12-26T09:26:41;101255.47;;;8.83;68.17
71149;BME280;59072;42.144;25.200;2022-12-26T09:29:06;101257.97;;;9.23;68.63
71149;BME280;59072;42.144;25.200;2022-12-26T09:31:33;101249.19;;;9.37;67.59
71149;BME280;59072;42.144;25.200;2022-12-26T09:34:04;101252.50;;;9.54;66.54
71149;BME280;59072;42.144;25.200;2022-12-26T09:36:32;101242.78;;;9.61;66.49
71149;BME280;59072;42.144;25.200;2022-12-26T09:38:58;101253.22;;;9.93;65.98
71149;BME280;59072;42.144;25.200;2022-12-26T09:49:35;101232.31;;;10.26;64.53
71149;BME280;59072;42.144;25.200;2022-12-26T09:52:03;101215.16;;;10.14;64.02
71149;BME280;59072;42.144;25.200;2022-12-26T09:54:33;101220.75;;;10.55;61.48
71149;BME280;59072;42.144;25.200;2022-12-26T09:57:01;101216.63;;;10.53;61.52
71149;BME280;59072;42.144;25.200;2022-12-26T09:59:30;101228.44;;;10.29;62.40
71149;BME280;59072;42.144;25.200;2022-12-26T10:01:56;101224.28;;;10.84;62.52
71149;BME280;59072;42.144;25.200;2022-12-26T10:04:26;101223.13;;;11.21;60.60
71149;BME280;59072;42.144;25.200;2022-12-26T10:15:37;101228.84;;;12.23;57.69
71149;BME280;59072;42.144;25.200;2022-12-26T10:23:45;101203.19;;;13.15;53.60
71149;BME280;59072;42.144;25.200;2022-12-26T10:26:18;101203.78;;;13.44;52.82
71149;BME280;59072;42.144;25.200;2022-12-26T10:28:53;101194.66;;;13.58;51.64
71149;BME280;59072;42.144;25.200;2022-12-26T10:36:48;101192.13;;;13.77;51.57
71149;BME280;59072;42.144;25.200;2022-12-26T10:39:22;101186.06;;;13.95;51.58
71149;BME280;59072;42.144;25.200;2022-12-26T10:42:02;101184.66;;;14.31;49.50
71149;BME280;59072;42.144;25.200;2022-12-26T10:44:32;101183.94;;;14.42;49.69
71149;BME280;59072;42.144;25.200;2022-12-26T10:49:37;101150.13;;;14.41;49.94
71149;BME280;59072;42.144;25.200;2022-12-26T10:52:03;101174.47;;;14.39;50.15
71149;BME280;59072;42.144;25.200;2022-12-26T10:54:29;101157.88;;;14.56;49.67
71149;BME280;59072;42.144;25.200;2022-12-26T10:56:56;101150.00;;;14.61;49.87
71149;BME280;59072;42.144;25.200;2022-12-26T10:59:35;101158.09;;;14.79;49.24
71149;BME280;59072;42.144;25.200;2022-12-26T11:02:32;101156.97;;;15.67;47.91
71149;BME280;59072;42.144;25.200;2022-12-26T11:05:08;101137.97;;;14.89;50.16
71149;BME280;59072;42.144;25.200;2022-12-26T11:07:47;101147.41;;;14.73;50.65
71149;BME280;59072;42.144;25.200;2022-12-26T11:10:23;101139.41;;;14.66;49.59
71149;BME280;59072;42.144;25.200;2022-12-26T11:12:52;101138.16;;;15.31;49.04
71149;BME280;59072;42.144;25.200;2022-12-26T11:17:46;101155.31;;;15.85;48.38
71149;BME280;59072;42.144;25.200;2022-12-26T11:22:42;101145.91;;;16.48;46.34
71149;BME280;59072;42.144;25.200;2022-12-26T11:27:46;101139.59;;;16.54;45.58
71149;BME280;59072;42.144;25.200;2022-12-26T11:32:38;101140.88;;;17.34;42.16
71149;BME280;59072;42.144;25.200;2022-12-26T11:35:04;101125.69;;;17.68;42.72
71149;BME280;59072;42.144;25.200;2022-12-26T11:37:36;101123.44;;;16.54;43.87
71149;BME280;59072;42.144;25.200;2022-12-26T11:40:04;101122.22;;;16.92;44.79
71149;BME280;59072;42.144;25.200;2022-12-26T11:42:30;101113.41;;;16.97;43.85
71149;BME280;59072;42.144;25.200;2022-12-26T11:44:57;101125.59;;;17.63;41.38
71149;BME280;59072;42.144;25.200;2022-12-26T11:47:27;101115.66;;;17.52;42.99
71149;BME280;59072;42.144;25.200;2022-12-26T11:52:51;101121.81;;;17.64;41.58
71149;BME280;59072;42.144;25.200;2022-12-26T12:16:41;101103.25;;;18.76;39.67
71149;BME280;59072;42.144;25.200;2022-12-26T12:19:24;101107.47;;;19.50;38.55
71149;BME280;59072;42.144;25.200;2022-12-26T12:21:59;101106.81;;;19.87;37.44
71149;BME280;59072;42.144;25.200;2022-12-26T12:44:05;101112.34;;;21.73;33.47
71149;BME280;59072;42.144;25.200;2022-12-26T12:52:02;101104.00;;;22.15;32.90
71149;BME280;59072;42.144;25.200;2022-12-26T12:57:26;101116.25;;;22.59;32.13
71149;BME280;59072;42.144;25.200;2022-12-26T13:08:13;101129.16;;;24.86;28.03
71149;BME280;59072;42.144;25.200;2022-12-26T13:10:55;101122.91;;;24.22;28.92
71149;BME280;59072;42.144;25.200;2022-12-26T13:13:36;101121.06;;;23.08;31.10
71149;BME280;59072;42.144;25.200;2022-12-26T13:16:14;101111.91;;;23.49;30.00
71149;BME280;59072;42.144;25.200;2022-12-26T13:18:57;101116.94;;;23.81;30.22
71149;BME280;59072;42.144;25.200;2022-12-26T13:21:24;101108.47;;;24.22;29.18
71149;BME280;59072;42.144;25.200;2022-12-26T13:24:11;101113.63;;;23.84;30.24
71149;BME280;59072;42.144;25.200;2022-12-26T13:31:59;101080.53;;;24.06;29.72
71149;BME280;59072;42.144;25.200;2022-12-26T13:34:26;101084.91;;;22.87;31.25
71149;BME280;59072;42.144;25.200;2022-12-26T13:36:53;101096.88;;;23.61;30.41
71149;BME280;59072;42.144;25.200;2022-12-26T13:44:37;101059.19;;;22.43;31.88
71149;BME280;59072;42.144;25.200;2022-12-26T13:47:02;101092.31;;;22.51;32.63
71149;BME280;59072;42.144;25.200;2022-12-26T13:50:01;101094.97;;;23.07;31.31
71149;BME280;59072;42.144;25.200;2022-12-26T13:52:34;101068.38;;;22.68;31.18
71149;BME280;59072;42.144;25.200;2022-12-26T13:57:42;101080.72;;;20.40;35.16
71149;BME280;59072;42.144;25.200;2022-12-26T14:06:11;101077.41;;;15.60;46.54
71149;BME280;59072;42.144;25.200;2022-12-26T14:09:02;101066.22;;;14.96;49.12
71149;BME280;59072;42.144;25.200;2022-12-26T14:11:58;101058.16;;;14.27;51.10
71149;BME280;59072;42.144;25.200;2022-12-26T14:22:26;101069.56;;;13.91;53.21
71149;BME280;59072;42.144;25.200;2022-12-26T14:25:12;101065.91;;;13.78;53.05
71149;BME280;59072;42.144;25.200;2022-12-26T14:27:52;101071.38;;;13.58;54.07
71149;BME280;59072;42.144;25.200;2022-12-26T14:33:09;101075.53;;;13.54;54.51
71149;BME280;59072;42.144;25.200;2022-12-26T14:35:44;101068.63;;;13.26;55.96
71149;BME280;59072;42.144;25.200;2022-12-26T14:41:23;101072.78;;;13.09;56.49
71149;BME280;59072;42.144;25.200;2022-12-26T14:46:56;101074.47;;;12.97;57.11
71149;BME280;59072;42.144;25.200;2022-12-26T14:54:47;101074.56;;;12.30;59.13
71149;BME280;59072;42.144;25.200;2022-12-26T14:57:48;101067.75;;;12.27;58.93
71149;BME280;59072;42.144;25.200;2022-12-26T15:03:14;101069.81;;;12.12;59.27
71149;BME280;59072;42.144;25.200;2022-12-26T15:05:37;101069.19;;;12.03;59.12
71149;BME280;59072;42.144;25.200;2022-12-26T15:35:49;101105.75;;;10.22;65.89
71149;BME280;59072;42.144;25.200;2022-12-26T15:38:39;101110.06;;;10.01;66.92
71149;BME280;59072;42.144;25.200;2022-12-26T15:41:36;101108.66;;;10.05;66.30
71149;BME280;59072;42.144;25.200;2022-12-26T15:49:58;101102.66;;;9.60;68.03
71149;BME280;59072;42.144;25.200;2022-12-26T15:52:50;101104.78;;;9.50;68.01
71149;BME280;59072;42.144;25.200;2022-12-26T15:55:41;101103.22;;;9.41;68.82
71149;BME280;59072;42.144;25.200;2022-12-26T16:01:00;101102.13;;;9.50;67.96
71149;BME280;59072;42.144;25.200;2022-12-26T16:11:49;101084.03;;;9.01;70.38
71149;BME280;59072;42.144;25.200;2022-12-26T16:14:37;101096.34;;;9.02;69.51
71149;BME280;59072;42.144;25.200;2022-12-26T16:19:38;101098.25;;;8.40;71.22
71149;BME280;59072;42.144;25.200;2022-12-26T16:22:06;101088.41;;;8.26;71.73
71149;BME280;59072;42.144;25.200;2022-12-26T16:24:52;101088.09;;;8.21;72.49
71149;BME280;59072;42.144;25.200;2022-12-26T16:27:23;101102.91;;;8.38;73.20
71149;BME280;59072;42.144;25.200;2022-12-26T16:29:56;101107.81;;;8.50;72.30
71149;BME280;59072;42.144;25.200;2022-12-26T16:32:42;101099.19;;;8.48;72.36
71149;BME280;59072;42.144;25.200;2022-12-26T16:35:35;101101.22;;;8.45;72.03
71149;BME280;59072;42.144;25.200;2022-12-26T16:38:05;101087.28;;;8.43;71.61
71149;BME280;59072;42.144;25.200;2022-12-26T16:40:44;101098.84;;;8.28;71.95
71149;BME280;59072;42.144;25.200;2022-12-26T16:45:38;101095.25;;;8.20;72.62
71149;BME280;59072;42.144;25.200;2022-12-26T16:48:06;101089.06;;;8.05;71.46
71149;BME280;59072;42.144;25.200;2022-12-26T16:50:36;101101.44;;;8.13;71.42
71149;BME280;59072;42.144;25.200;2022-12-26T16:53:11;101059.16;;;7.80;72.28
71149;BME280;59072;42.144;25.200;2022-12-26T16:55:47;101097.81;;;7.82;72.09
71149;BME280;59072;42.144;25.200;2022-12-26T17:01:07;101098.34;;;7.78;72.90
71149;BME280;59072;42.144;25.200;2022-12-26T17:04:14;101100.44;;;7.59;73.21
71149;BME280;59072;42.144;25.200;2022-12-26T17:06:31;101097.03;;;7.03;74.55
71149;BME280;59072;42.144;25.200;2022-12-26T17:09:02;101080.22;;;6.55;76.43